sensor_id;sensor_type;location;lat;lon;timestamp;P1;durP1;ratioP1;P2;durP2;ratioP2
18905;SDS011;9585;51.018;4.282;2022-10-31T00:02:02;13.02;;;9.30;;
18905;SDS011;9585;51.018;4.282;2022-10-31T00:04:29;14.90;;;9.70;;
18905;SDS011;9585;51.018;4.282;2022-10-31T00:06:56;11.23;;;8.27;;
18905;SDS011;9585;51.018;4.282;2022-10-31T00:09:24;9.70;;;7.85;;
18905;SDS011;9585;51.018;4.282;2022-10-31T00:11:51;10.43;;;8.10;;
18905;SDS011;9585;51.018;4.282;2022-10-31T00:14:19;13.20;;;8.45;;
18905;SDS011;9585;51.018;4.282;2022-10-31T00:16:46;10.10;;;7.35;;
18905;SDS011;9585;51.018;4.282;2022-10-31T00:19:15;14.00;;;8.82;;
18905;SDS011;9585;51.018;4.282;2022-10-31T00:21:42;10.00;;;7.93;;
18905;SDS011;9585;51.018;4.282;2022-10-31T00:24:10;11.88;;;7.53;;
18905;SDS011;9585;51.018;4.282;2022-10-31T00:26:38;7.63;;;6.82;;
18905;SDS011;9585;51.018;4.282;2022-10-31T00:29:05;9.15;;;6.95;;
18905;SDS011;9585;51.018;4.282;2022-10-31T00:31:33;8.00;;;6.32;;
18905;SDS011;9585;51.018;4.282;2022-10-31T00:34:00;7.78;;;6.68;;
18905;SDS011;9585;51.018;4.282;2022-10-31T00:36:30;10.27;;;7.30;;
18905;SDS011;9585;51.018;4.282;2022-10-31T00:38:57;11.98;;;8.50;;
18905;SDS011;9585;51.018;4.282;2022-10-31T00:41:26;10.98;;;8.32;;
18905;SDS011;9585;51.018;4.282;2022-10-31T00:43:54;10.77;;;7.97;;
18905;SDS011;9585;51.018;4.282;2022-10-31T00:46:21;13.13;;;8.20;;
18905;SDS011;9585;51.018;4.282;2022-10-31T00:48:48;11.88;;;7.82;;
18905;SDS011;9585;51.018;4.282;2022-10-31T00:51:16;9.45;;;7.65;;
18905;SDS011;9585;51.018;4.282;2022-10-31T00:53:44;9.85;;;6.70;;
18905;SDS011;9585;51.018;4.282;2022-10-31T00:56:12;8.43;;;5.97;;
18905;SDS011;9585;51.018;4.282;2022-10-31T00:58:39;9.02;;;6.38;;
18905;SDS011;9585;51.018;4.282;2022-10-31T01:01:07;8.95;;;7.03;;
18905;SDS011;9585;51.018;4.282;2022-10-31T01:03:34;8.25;;;6.25;;
18905;SDS011;9585;51.018;4.282;2022-10-31T01:06:04;8.27;;;6.47;;
18905;SDS011;9585;51.018;4.282;2022-10-31T01:08:33;6.85;;;5.95;;
18905;SDS011;9585;51.018;4.282;2022-10-31T01:11:03;8.73;;;6.57;;
18905;SDS011;9585;51.018;4.282;2022-10-31T01:13:33;7.97;;;6.07;;
18905;SDS011;9585;51.018;4.282;2022-10-31T01:16:02;7.95;;;5.80;;
18905;SDS011;9585;51.018;4.282;2022-10-31T01:18:31;9.13;;;6.63;;
18905;SDS011;9585;51.018;4.282;2022-10-31T01:20:59;9.57;;;7.20;;
18905;SDS011;9585;51.018;4.282;2022-10-31T01:23:28;10.15;;;7.60;;
18905;SDS011;9585;51.018;4.282;2022-10-31T01:26:00;10.70;;;7.88;;
18905;SDS011;9585;51.018;4.282;2022-10-31T01:28:33;8.25;;;6.43;;
18905;SDS011;9585;51.018;4.282;2022-10-31T01:31:02;8.52;;;5.38;;
18905;SDS011;9585;51.018;4.282;2022-10-31T01:33:31;7.82;;;6.43;;
18905;SDS011;9585;51.018;4.282;2022-10-31T01:35:59;8.88;;;7.05;;
18905;SDS011;9585;51.018;4.282;2022-10-31T01:38:26;8.75;;;6.63;;
18905;SDS011;9585;51.018;4.282;2022-10-31T01:40:54;9.35;;;6.60;;
18905;SDS011;9585;51.018;4.282;2022-10-31T01:43:23;8.13;;;6.03;;
18905;SDS011;9585;51.018;4.282;2022-10-31T01:45:51;7.25;;;5.78;;
18905;SDS011;9585;51.018;4.282;2022-10-31T01:48:21;7.95;;;6.53;;
18905;SDS011;9585;51.018;4.282;2022-10-31T01:50:52;9.82;;;7.10;;
18905;SDS011;9585;51.018;4.282;2022-10-31T01:53:21;10.55;;;7.30;;
18905;SDS011;9585;51.018;4.282;2022-10-31T01:55:49;10.50;;;7.65;;
18905;SDS011;9585;51.018;4.282;2022-10-31T01:58:18;8.15;;;7.00;;
18905;SDS011;9585;51.018;4.282;2022-10-31T02:00:51;7.85;;;6.10;;
18905;SDS011;9585;51.018;4.282;2022-10-31T02:03:23;8.07;;;6.28;;
18905;SDS011;9585;51.018;4.282;2022-10-31T02:05:53;7.47;;;6.43;;
18905;SDS011;9585;51.018;4.282;2022-10-31T02:08:23;7.25;;;5.68;;
18905;SDS011;9585;51.018;4.282;2022-10-31T02:10:53;7.38;;;5.75;;
18905;SDS011;9585;51.018;4.282;2022-10-31T02:13:22;7.93;;;5.75;;
18905;SDS011;9585;51.018;4.282;2022-10-31T02:15:53;6.85;;;5.63;;
18905;SDS011;9585;51.018;4.282;2022-10-31T02:18:22;7.03;;;6.32;;
18905;SDS011;9585;51.018;4.282;2022-10-31T02:20:54;6.65;;;5.82;;
18905;SDS011;9585;51.018;4.282;2022-10-31T02:23:33;7.03;;;5.60;;
18905;SDS011;9585;51.018;4.282;2022-10-31T02:26:31;9.13;;;5.97;;
18905;SDS011;9585;51.018;4.282;2022-10-31T02:29:29;7.55;;;5.80;;
18905;SDS011;9585;51.018;4.282;2022-10-31T02:32:17;6.72;;;5.53;;
18905;SDS011;9585;51.018;4.282;2022-10-31T02:34:51;7.45;;;5.65;;
18905;SDS011;9585;51.018;4.282;2022-10-31T02:37:25;5.97;;;5.07;;
18905;SDS011;9585;51.018;4.282;2022-10-31T02:40:04;7.03;;;4.97;;
18905;SDS011;9585;51.018;4.282;2022-10-31T02:42:38;5.47;;;4.50;;
18905;SDS011;9585;51.018;4.282;2022-10-31T02:45:13;4.78;;;4.13;;
18905;SDS011;9585;51.018;4.282;2022-10-31T02:47:48;5.43;;;4.43;;
18905;SDS011;9585;51.018;4.282;2022-10-31T02:50:18;6.47;;;5.18;;
18905;SDS011;9585;51.018;4.282;2022-10-31T02:52:50;8.38;;;6.13;;
18905;SDS011;9585;51.018;4.282;2022-10-31T02:58:22;6.30;;;5.00;;
18905;SDS011;9585;51.018;4.282;2022-10-31T03:03:56;3.72;;;3.30;;
18905;SDS011;9585;51.018;4.282;2022-10-31T03:06:39;3.92;;;3.15;;
18905;SDS011;9585;51.018;4.282;2022-10-31T03:09:12;3.00;;;2.70;;
18905;SDS011;9585;51.018;4.282;2022-10-31T03:11:48;3.25;;;2.45;;
18905;SDS011;9585;51.018;4.282;2022-10-31T03:14:25;3.10;;;2.80;;
18905;SDS011;9585;51.018;4.282;2022-10-31T03:16:59;3.20;;;2.80;;
18905;SDS011;9585;51.018;4.282;2022-10-31T03:19:34;2.70;;;2.50;;
18905;SDS011;9585;51.018;4.282;2022-10-31T03:22:10;3.15;;;2.75;;
18905;SDS011;9585;51.018;4.282;2022-10-31T03:24:42;3.45;;;2.92;;
18905;SDS011;9585;51.018;4.282;2022-10-31T03:27:12;4.20;;;3.30;;
18905;SDS011;9585;51.018;4.282;2022-10-31T03:29:41;4.93;;;3.75;;
18905;SDS011;9585;51.018;4.282;2022-10-31T03:32:11;4.70;;;4.18;;
18905;SDS011;9585;51.018;4.282;2022-10-31T03:34:43;6.65;;;4.55;;
18905;SDS011;9585;51.018;4.282;2022-10-31T03:37:13;6.10;;;4.78;;
18905;SDS011;9585;51.018;4.282;2022-10-31T03:39:45;4.40;;;3.90;;
18905;SDS011;9585;51.018;4.282;2022-10-31T03:42:15;5.32;;;4.55;;
18905;SDS011;9585;51.018;4.282;2022-10-31T03:44:45;5.03;;;4.50;;
18905;SDS011;9585;51.018;4.282;2022-10-31T03:47:17;5.40;;;4.85;;
18905;SDS011;9585;51.018;4.282;2022-10-31T03:49:46;6.07;;;5.32;;
18905;SDS011;9585;51.018;4.282;2022-10-31T03:52:16;6.35;;;5.75;;
18905;SDS011;9585;51.018;4.282;2022-10-31T03:54:51;6.35;;;5.35;;
18905;SDS011;9585;51.018;4.282;2022-10-31T03:57:22;7.43;;;5.00;;
18905;SDS011;9585;51.018;4.282;2022-10-31T03:59:55;6.50;;;5.22;;
18905;SDS011;9585;51.018;4.282;2022-10-31T04:02:28;6.40;;;5.07;;
18905;SDS011;9585;51.018;4.282;2022-10-31T04:05:00;6.90;;;5.20;;
18905;SDS011;9585;51.018;4.282;2022-10-31T04:07:29;5.15;;;4.00;;
18905;SDS011;9585;51.018;4.282;2022-10-31T04:10:00;4.55;;;4.10;;
18905;SDS011;9585;51.018;4.282;2022-10-31T04:12:32;5.80;;;4.10;;
18905;SDS011;9585;51.018;4.282;2022-10-31T04:15:00;6.13;;;4.07;;
18905;SDS011;9585;51.018;4.282;2022-10-31T04:17:31;4.00;;;3.60;;
18905;SDS011;9585;51.018;4.282;2022-10-31T04:20:03;4.55;;;4.00;;
18905;SDS011;9585;51.018;4.282;2022-10-31T04:22:31;4.85;;;3.75;;
18905;SDS011;9585;51.018;4.282;2022-10-31T04:24:58;4.57;;;4.10;;
18905;SDS011;9585;51.018;4.282;2022-10-31T04:27:26;4.65;;;3.65;;
18905;SDS011;9585;51.018;4.282;2022-10-31T04:29:54;6.25;;;4.20;;
18905;SDS011;9585;51.018;4.282;2022-10-31T04:32:21;4.95;;;4.15;;
18905;SDS011;9585;51.018;4.282;2022-10-31T04:34:51;4.85;;;4.00;;
18905;SDS011;9585;51.018;4.282;2022-10-31T04:37:22;5.35;;;4.10;;
18905;SDS011;9585;51.018;4.282;2022-10-31T04:39:49;5.40;;;4.43;;
18905;SDS011;9585;51.018;4.282;2022-10-31T04:42:17;6.07;;;4.63;;
18905;SDS011;9585;51.018;4.282;2022-10-31T04:44:44;5.93;;;4.35;;
18905;SDS011;9585;51.018;4.282;2022-10-31T04:47:11;5.60;;;3.97;;
18905;SDS011;9585;51.018;4.282;2022-10-31T04:49:39;5.53;;;4.40;;
18905;SDS011;9585;51.018;4.282;2022-10-31T04:52:06;6.43;;;5.13;;
18905;SDS011;9585;51.018;4.282;2022-10-31T04:54:35;8.27;;;6.15;;
18905;SDS011;9585;51.018;4.282;2022-10-31T04:57:02;7.75;;;5.30;;
18905;SDS011;9585;51.018;4.282;2022-10-31T04:59:29;10.07;;;6.53;;
18905;SDS011;9585;51.018;4.282;2022-10-31T05:01:57;8.95;;;6.65;;
18905;SDS011;9585;51.018;4.282;2022-10-31T05:04:24;9.95;;;7.00;;
18905;SDS011;9585;51.018;4.282;2022-10-31T05:06:52;9.55;;;6.93;;
18905;SDS011;9585;51.018;4.282;2022-10-31T05:09:19;10.10;;;7.07;;
18905;SDS011;9585;51.018;4.282;2022-10-31T05:11:48;10.60;;;7.07;;
18905;SDS011;9585;51.018;4.282;2022-10-31T05:14:15;8.98;;;7.20;;
18905;SDS011;9585;51.018;4.282;2022-10-31T05:16:42;8.88;;;6.85;;
18905;SDS011;9585;51.018;4.282;2022-10-31T05:19:10;10.32;;;7.15;;
18905;SDS011;9585;51.018;4.282;2022-10-31T05:21:37;8.40;;;7.10;;
18905;SDS011;9585;51.018;4.282;2022-10-31T05:24:05;11.00;;;7.28;;
18905;SDS011;9585;51.018;4.282;2022-10-31T05:26:32;9.00;;;7.03;;
18905;SDS011;9585;51.018;4.282;2022-10-31T05:29:01;9.50;;;7.40;;
18905;SDS011;9585;51.018;4.282;2022-10-31T05:31:29;9.55;;;7.80;;
18905;SDS011;9585;51.018;4.282;2022-10-31T05:33:56;11.07;;;8.05;;
18905;SDS011;9585;51.018;4.282;2022-10-31T05:36:24;10.70;;;8.00;;
18905;SDS011;9585;51.018;4.282;2022-10-31T05:38:51;9.63;;;8.15;;
18905;SDS011;9585;51.018;4.282;2022-10-31T05:41:18;9.52;;;7.65;;
18905;SDS011;9585;51.018;4.282;2022-10-31T05:43:45;10.48;;;8.07;;
18905;SDS011;9585;51.018;4.282;2022-10-31T05:46:14;10.45;;;8.23;;
18905;SDS011;9585;51.018;4.282;2022-10-31T05:48:41;9.95;;;7.63;;
18905;SDS011;9585;51.018;4.282;2022-10-31T05:51:08;10.23;;;7.95;;
18905;SDS011;9585;51.018;4.282;2022-10-31T05:53:36;13.20;;;9.65;;
18905;SDS011;9585;51.018;4.282;2022-10-31T05:56:03;11.70;;;8.85;;
18905;SDS011;9585;51.018;4.282;2022-10-31T05:58:31;12.45;;;8.63;;
18905;SDS011;9585;51.018;4.282;2022-10-31T06:00:58;12.13;;;8.02;;
18905;SDS011;9585;51.018;4.282;2022-10-31T06:03:27;12.00;;;7.90;;
18905;SDS011;9585;51.018;4.282;2022-10-31T06:05:54;12.35;;;8.45;;
18905;SDS011;9585;51.018;4.282;2022-10-31T06:08:21;11.85;;;8.63;;
18905;SDS011;9585;51.018;4.282;2022-10-31T06:10:49;13.18;;;9.10;;
18905;SDS011;9585;51.018;4.282;2022-10-31T06:13:18;12.65;;;8.93;;
18905;SDS011;9585;51.018;4.282;2022-10-31T06:15:45;10.77;;;8.25;;
18905;SDS011;9585;51.018;4.282;2022-10-31T06:18:12;10.77;;;7.40;;
18905;SDS011;9585;51.018;4.282;2022-10-31T06:20:41;14.15;;;9.40;;
18905;SDS011;9585;51.018;4.282;2022-10-31T06:23:08;11.48;;;8.90;;
18905;SDS011;9585;51.018;4.282;2022-10-31T06:25:36;11.45;;;8.00;;
18905;SDS011;9585;51.018;4.282;2022-10-31T06:28:03;10.85;;;8.20;;
18905;SDS011;9585;51.018;4.282;2022-10-31T06:30:30;12.27;;;8.55;;
18905;SDS011;9585;51.018;4.282;2022-10-31T06:33:01;8.55;;;7.43;;
18905;SDS011;9585;51.018;4.282;2022-10-31T06:35:29;11.52;;;8.18;;
18905;SDS011;9585;51.018;4.282;2022-10-31T06:37:58;10.70;;;7.43;;
18905;SDS011;9585;51.018;4.282;2022-10-31T06:40:26;9.18;;;6.82;;
18905;SDS011;9585;51.018;4.282;2022-10-31T06:42:56;10.23;;;7.80;;
18905;SDS011;9585;51.018;4.282;2022-10-31T06:45:24;7.35;;;6.53;;
18905;SDS011;9585;51.018;4.282;2022-10-31T06:47:51;8.98;;;7.00;;
18905;SDS011;9585;51.018;4.282;2022-10-31T06:50:19;8.55;;;6.40;;
18905;SDS011;9585;51.018;4.282;2022-10-31T06:52:51;9.02;;;6.78;;
18905;SDS011;9585;51.018;4.282;2022-10-31T06:55:20;7.97;;;5.88;;
18905;SDS011;9585;51.018;4.282;2022-10-31T06:57:51;6.45;;;5.72;;
18905;SDS011;9585;51.018;4.282;2022-10-31T07:00:18;6.97;;;5.93;;
18905;SDS011;9585;51.018;4.282;2022-10-31T07:02:52;7.10;;;6.38;;
18905;SDS011;9585;51.018;4.282;2022-10-31T07:05:20;8.20;;;6.78;;
18905;SDS011;9585;51.018;4.282;2022-10-31T07:07:51;7.78;;;6.43;;
18905;SDS011;9585;51.018;4.282;2022-10-31T07:10:20;10.95;;;8.63;;
18905;SDS011;9585;51.018;4.282;2022-10-31T07:12:48;12.23;;;7.55;;
18905;SDS011;9585;51.018;4.282;2022-10-31T07:15:15;9.02;;;7.30;;
18905;SDS011;9585;51.018;4.282;2022-10-31T07:17:42;12.05;;;8.52;;
18905;SDS011;9585;51.018;4.282;2022-10-31T07:20:10;10.75;;;7.70;;
18905;SDS011;9585;51.018;4.282;2022-10-31T07:22:37;8.98;;;7.60;;
18905;SDS011;9585;51.018;4.282;2022-10-31T07:25:04;8.20;;;7.32;;
18905;SDS011;9585;51.018;4.282;2022-10-31T07:27:36;9.85;;;7.05;;
18905;SDS011;9585;51.018;4.282;2022-10-31T07:30:04;11.10;;;8.15;;
18905;SDS011;9585;51.018;4.282;2022-10-31T07:32:38;9.95;;;7.55;;
18905;SDS011;9585;51.018;4.282;2022-10-31T07:35:06;10.85;;;7.70;;
18905;SDS011;9585;51.018;4.282;2022-10-31T07:37:34;8.48;;;7.50;;
18905;SDS011;9585;51.018;4.282;2022-10-31T07:40:02;10.75;;;7.53;;
18905;SDS011;9585;51.018;4.282;2022-10-31T07:42:34;7.80;;;6.40;;
18905;SDS011;9585;51.018;4.282;2022-10-31T07:45:03;6.85;;;6.07;;
18905;SDS011;9585;51.018;4.282;2022-10-31T07:47:37;6.70;;;5.65;;
18905;SDS011;9585;51.018;4.282;2022-10-31T07:50:05;7.75;;;6.80;;
18905;SDS011;9585;51.018;4.282;2022-10-31T07:52:33;13.43;;;8.65;;
18905;SDS011;9585;51.018;4.282;2022-10-31T07:55:00;13.13;;;9.25;;
18905;SDS011;9585;51.018;4.282;2022-10-31T07:57:27;11.82;;;9.48;;
18905;SDS011;9585;51.018;4.282;2022-10-31T07:59:56;12.23;;;9.18;;
18905;SDS011;9585;51.018;4.282;2022-10-31T08:02:23;14.18;;;8.82;;
18905;SDS011;9585;51.018;4.282;2022-10-31T08:04:52;11.98;;;9.35;;
18905;SDS011;9585;51.018;4.282;2022-10-31T08:07:20;14.48;;;10.23;;
18905;SDS011;9585;51.018;4.282;2022-10-31T08:09:47;16.10;;;10.60;;
18905;SDS011;9585;51.018;4.282;2022-10-31T08:12:14;15.77;;;9.98;;
18905;SDS011;9585;51.018;4.282;2022-10-31T08:14:42;13.10;;;9.77;;
18905;SDS011;9585;51.018;4.282;2022-10-31T08:17:10;14.27;;;10.25;;
18905;SDS011;9585;51.018;4.282;2022-10-31T08:19:38;15.02;;;10.23;;
18905;SDS011;9585;51.018;4.282;2022-10-31T08:22:05;16.73;;;11.23;;
18905;SDS011;9585;51.018;4.282;2022-10-31T08:24:32;14.68;;;10.40;;
18905;SDS011;9585;51.018;4.282;2022-10-31T08:27:00;11.38;;;9.32;;
18905;SDS011;9585;51.018;4.282;2022-10-31T08:29:27;19.88;;;13.55;;
18905;SDS011;9585;51.018;4.282;2022-10-31T08:31:55;20.65;;;12.57;;
18905;SDS011;9585;51.018;4.282;2022-10-31T08:34:26;16.13;;;12.27;;
18905;SDS011;9585;51.018;4.282;2022-10-31T08:36:53;18.25;;;12.05;;
18905;SDS011;9585;51.018;4.282;2022-10-31T08:39:20;18.55;;;12.10;;
18905;SDS011;9585;51.018;4.282;2022-10-31T08:41:48;12.60;;;10.65;;
18905;SDS011;9585;51.018;4.282;2022-10-31T08:44:15;11.52;;;9.80;;
18905;SDS011;9585;51.018;4.282;2022-10-31T08:46:42;9.88;;;8.73;;
18905;SDS011;9585;51.018;4.282;2022-10-31T08:49:10;10.45;;;8.43;;
18905;SDS011;9585;51.018;4.282;2022-10-31T08:51:39;10.80;;;8.45;;
18905;SDS011;9585;51.018;4.282;2022-10-31T08:54:06;13.93;;;11.13;;
18905;SDS011;9585;51.018;4.282;2022-10-31T08:56:33;13.20;;;10.63;;
18905;SDS011;9585;51.018;4.282;2022-10-31T08:59:01;12.82;;;9.93;;
18905;SDS011;9585;51.018;4.282;2022-10-31T09:01:28;10.65;;;9.52;;
18905;SDS011;9585;51.018;4.282;2022-10-31T09:03:56;16.58;;;12.57;;
18905;SDS011;9585;51.018;4.282;2022-10-31T09:06:23;11.88;;;10.68;;
18905;SDS011;9585;51.018;4.282;2022-10-31T09:08:52;16.40;;;12.48;;
18905;SDS011;9585;51.018;4.282;2022-10-31T09:11:19;13.65;;;10.65;;
18905;SDS011;9585;51.018;4.282;2022-10-31T09:13:46;14.07;;;11.18;;
18905;SDS011;9585;51.018;4.282;2022-10-31T09:16:13;10.95;;;9.57;;
18905;SDS011;9585;51.018;4.282;2022-10-31T09:18:41;12.38;;;10.50;;
18905;SDS011;9585;51.018;4.282;2022-10-31T09:21:08;13.93;;;10.70;;
18905;SDS011;9585;51.018;4.282;2022-10-31T09:23:35;13.00;;;10.70;;
18905;SDS011;9585;51.018;4.282;2022-10-31T09:26:04;11.35;;;10.15;;
18905;SDS011;9585;51.018;4.282;2022-10-31T09:28:31;11.43;;;9.13;;
18905;SDS011;9585;51.018;4.282;2022-10-31T09:30:59;11.32;;;9.30;;
18905;SDS011;9585;51.018;4.282;2022-10-31T09:33:26;14.70;;;11.18;;
18905;SDS011;9585;51.018;4.282;2022-10-31T09:35:53;15.40;;;10.90;;
18905;SDS011;9585;51.018;4.282;2022-10-31T09:38:20;13.63;;;10.73;;
18905;SDS011;9585;51.018;4.282;2022-10-31T09:40:49;13.07;;;10.00;;
18905;SDS011;9585;51.018;4.282;2022-10-31T09:43:25;12.45;;;9.85;;
18905;SDS011;9585;51.018;4.282;2022-10-31T09:45:59;13.65;;;10.32;;
18905;SDS011;9585;51.018;4.282;2022-10-31T09:48:34;13.25;;;10.43;;
18905;SDS011;9585;51.018;4.282;2022-10-31T09:51:11;11.80;;;9.57;;
18905;SDS011;9585;51.018;4.282;2022-10-31T09:53:43;10.90;;;8.98;;
18905;SDS011;9585;51.018;4.282;2022-10-31T09:56:15;10.38;;;8.27;;
18905;SDS011;9585;51.018;4.282;2022-10-31T09:58:47;9.95;;;8.68;;
18905;SDS011;9585;51.018;4.282;2022-10-31T10:04:17;8.00;;;6.75;;
18905;SDS011;9585;51.018;4.282;2022-10-31T10:06:57;8.80;;;7.47;;
18905;SDS011;9585;51.018;4.282;2022-10-31T10:09:27;9.57;;;8.32;;
18905;SDS011;9585;51.018;4.282;2022-10-31T10:11:58;11.35;;;9.93;;
18905;SDS011;9585;51.018;4.282;2022-10-31T10:14:41;10.77;;;9.35;;
18905;SDS011;9585;51.018;4.282;2022-10-31T10:17:20;12.65;;;9.45;;
18905;SDS011;9585;51.018;4.282;2022-10-31T10:19:59;11.50;;;8.45;;
18905;SDS011;9585;51.018;4.282;2022-10-31T10:22:43;10.57;;;8.80;;
18905;SDS011;9585;51.018;4.282;2022-10-31T10:25:19;12.63;;;9.57;;
18905;SDS011;9585;51.018;4.282;2022-10-31T10:27:51;14.85;;;10.60;;
18905;SDS011;9585;51.018;4.282;2022-10-31T10:30:30;13.18;;;10.00;;
18905;SDS011;9585;51.018;4.282;2022-10-31T10:33:02;12.27;;;9.68;;
18905;SDS011;9585;51.018;4.282;2022-10-31T10:35:38;16.83;;;9.82;;
18905;SDS011;9585;51.018;4.282;2022-10-31T10:38:12;11.93;;;9.27;;
18905;SDS011;9585;51.018;4.282;2022-10-31T10:40:43;13.57;;;10.10;;
18905;SDS011;9585;51.018;4.282;2022-10-31T10:43:21;14.93;;;10.25;;
18905;SDS011;9585;51.018;4.282;2022-10-31T10:45:55;14.40;;;9.43;;
18905;SDS011;9585;51.018;4.282;2022-10-31T10:48:58;14.55;;;9.75;;
18905;SDS011;9585;51.018;4.282;2022-10-31T10:51:35;14.20;;;10.07;;
18905;SDS011;9585;51.018;4.282;2022-10-31T10:54:10;11.45;;;9.15;;
18905;SDS011;9585;51.018;4.282;2022-10-31T10:57:00;13.52;;;10.07;;
18905;SDS011;9585;51.018;4.282;2022-10-31T10:59:38;11.18;;;9.15;;
18905;SDS011;9585;51.018;4.282;2022-10-31T11:02:15;12.95;;;10.13;;
18905;SDS011;9585;51.018;4.282;2022-10-31T11:04:44;13.40;;;10.43;;
18905;SDS011;9585;51.018;4.282;2022-10-31T11:07:15;12.60;;;9.77;;
18905;SDS011;9585;51.018;4.282;2022-10-31T11:09:42;14.23;;;9.82;;
18905;SDS011;9585;51.018;4.282;2022-10-31T11:12:16;14.90;;;10.57;;
18905;SDS011;9585;51.018;4.282;2022-10-31T11:14:47;15.13;;;11.10;;
18905;SDS011;9585;51.018;4.282;2022-10-31T11:17:21;12.32;;;10.00;;
18905;SDS011;9585;51.018;4.282;2022-10-31T11:20:03;13.18;;;10.23;;
18905;SDS011;9585;51.018;4.282;2022-10-31T11:22:32;14.88;;;11.05;;
18905;SDS011;9585;51.018;4.282;2022-10-31T11:24:59;17.23;;;10.85;;
18905;SDS011;9585;51.018;4.282;2022-10-31T11:27:27;13.18;;;10.60;;
18905;SDS011;9585;51.018;4.282;2022-10-31T11:30:03;20.05;;;11.93;;
18905;SDS011;9585;51.018;4.282;2022-10-31T11:32:33;16.08;;;11.45;;
18905;SDS011;9585;51.018;4.282;2022-10-31T11:35:02;16.73;;;11.27;;
18905;SDS011;9585;51.018;4.282;2022-10-31T11:37:35;15.13;;;11.43;;
18905;SDS011;9585;51.018;4.282;2022-10-31T11:40:14;14.70;;;11.32;;
18905;SDS011;9585;51.018;4.282;2022-10-31T11:42:44;16.40;;;11.80;;
18905;SDS011;9585;51.018;4.282;2022-10-31T11:45:14;19.73;;;12.30;;
18905;SDS011;9585;51.018;4.282;2022-10-31T11:47:44;15.93;;;11.63;;
18905;SDS011;9585;51.018;4.282;2022-10-31T11:50:18;18.20;;;11.88;;
18905;SDS011;9585;51.018;4.282;2022-10-31T11:52:48;17.10;;;12.13;;
18905;SDS011;9585;51.018;4.282;2022-10-31T11:55:17;16.83;;;11.73;;
18905;SDS011;9585;51.018;4.282;2022-10-31T11:57:57;16.75;;;12.55;;
18905;SDS011;9585;51.018;4.282;2022-10-31T12:00:26;17.88;;;12.73;;
18905;SDS011;9585;51.018;4.282;2022-10-31T12:03:09;17.00;;;11.73;;
18905;SDS011;9585;51.018;4.282;2022-10-31T12:05:39;14.82;;;11.77;;
18905;SDS011;9585;51.018;4.282;2022-10-31T12:08:08;14.98;;;11.18;;
18905;SDS011;9585;51.018;4.282;2022-10-31T12:10:38;14.88;;;11.32;;
18905;SDS011;9585;51.018;4.282;2022-10-31T12:13:16;15.20;;;11.40;;
18905;SDS011;9585;51.018;4.282;2022-10-31T12:15:59;14.75;;;11.63;;
18905;SDS011;9585;51.018;4.282;2022-10-31T12:21:42;15.98;;;11.88;;
18905;SDS011;9585;51.018;4.282;2022-10-31T12:24:26;16.20;;;10.95;;
18905;SDS011;9585;51.018;4.282;2022-10-31T12:27:05;17.05;;;10.68;;
18905;SDS011;9585;51.018;4.282;2022-10-31T12:29:45;14.90;;;10.10;;
18905;SDS011;9585;51.018;4.282;2022-10-31T12:32:33;13.77;;;9.98;;
18905;SDS011;9585;51.018;4.282;2022-10-31T12:35:18;12.98;;;9.45;;
18905;SDS011;9585;51.018;4.282;2022-10-31T12:37:56;14.40;;;9.57;;
18905;SDS011;9585;51.018;4.282;2022-10-31T12:40:48;17.70;;;10.27;;
18905;SDS011;9585;51.018;4.282;2022-10-31T12:43:35;14.88;;;9.48;;
18905;SDS011;9585;51.018;4.282;2022-10-31T12:46:10;12.10;;;8.70;;
18905;SDS011;9585;51.018;4.282;2022-10-31T12:51:59;12.68;;;8.88;;
18905;SDS011;9585;51.018;4.282;2022-10-31T12:54:51;17.00;;;9.25;;
18905;SDS011;9585;51.018;4.282;2022-10-31T12:57:29;14.85;;;9.68;;
18905;SDS011;9585;51.018;4.282;2022-10-31T13:00:02;14.82;;;8.70;;
18905;SDS011;9585;51.018;4.282;2022-10-31T13:02:35;11.30;;;8.57;;
18905;SDS011;9585;51.018;4.282;2022-10-31T13:05:12;16.02;;;9.65;;
18905;SDS011;9585;51.018;4.282;2022-10-31T13:07:46;14.35;;;9.13;;
18905;SDS011;9585;51.018;4.282;2022-10-31T13:10:19;13.77;;;9.10;;
18905;SDS011;9585;51.018;4.282;2022-10-31T13:12:53;14.32;;;8.68;;
18905;SDS011;9585;51.018;4.282;2022-10-31T13:15:25;13.70;;;8.80;;
18905;SDS011;9585;51.018;4.282;2022-10-31T13:17:56;12.43;;;7.85;;
18905;SDS011;9585;51.018;4.282;2022-10-31T13:20:28;12.35;;;7.93;;
18905;SDS011;9585;51.018;4.282;2022-10-31T13:23:00;14.00;;;7.95;;
18905;SDS011;9585;51.018;4.282;2022-10-31T13:25:37;14.52;;;8.35;;
18905;SDS011;9585;51.018;4.282;2022-10-31T13:28:09;12.32;;;7.97;;
18905;SDS011;9585;51.018;4.282;2022-10-31T13:30:48;11.90;;;7.55;;
18905;SDS011;9585;51.018;4.282;2022-10-31T13:33:17;12.02;;;8.60;;
18905;SDS011;9585;51.018;4.282;2022-10-31T13:35:46;13.10;;;7.45;;
18905;SDS011;9585;51.018;4.282;2022-10-31T13:38:21;12.98;;;7.13;;
18905;SDS011;9585;51.018;4.282;2022-10-31T13:40:57;14.50;;;7.60;;
18905;SDS011;9585;51.018;4.282;2022-10-31T13:43:30;13.48;;;7.63;;
18905;SDS011;9585;51.018;4.282;2022-10-31T13:46:21;11.38;;;6.80;;
18905;SDS011;9585;51.018;4.282;2022-10-31T13:48:50;12.60;;;6.88;;
18905;SDS011;9585;51.018;4.282;2022-10-31T13:51:24;10.82;;;6.38;;
18905;SDS011;9585;51.018;4.282;2022-10-31T13:53:58;14.35;;;6.78;;
18905;SDS011;9585;51.018;4.282;2022-10-31T13:56:27;9.57;;;6.10;;
18905;SDS011;9585;51.018;4.282;2022-10-31T13:58:57;11.18;;;5.97;;
18905;SDS011;9585;51.018;4.282;2022-10-31T14:01:32;10.48;;;6.80;;
18905;SDS011;9585;51.018;4.282;2022-10-31T14:04:02;12.85;;;6.38;;
18905;SDS011;9585;51.018;4.282;2022-10-31T14:06:34;15.02;;;6.57;;
18905;SDS011;9585;51.018;4.282;2022-10-31T14:09:14;9.95;;;6.50;;
18905;SDS011;9585;51.018;4.282;2022-10-31T14:11:47;12.50;;;6.25;;
18905;SDS011;9585;51.018;4.282;2022-10-31T14:14:16;11.80;;;5.57;;
18905;SDS011;9585;51.018;4.282;2022-10-31T14:16:45;13.70;;;6.25;;
18905;SDS011;9585;51.018;4.282;2022-10-31T14:19:19;9.75;;;5.78;;
18905;SDS011;9585;51.018;4.282;2022-10-31T14:21:48;13.88;;;6.50;;
18905;SDS011;9585;51.018;4.282;2022-10-31T14:24:31;10.88;;;5.68;;
18905;SDS011;9585;51.018;4.282;2022-10-31T14:27:04;9.95;;;5.90;;
18905;SDS011;9585;51.018;4.282;2022-10-31T14:30:10;11.07;;;5.68;;
18905;SDS011;9585;51.018;4.282;2022-10-31T14:32:45;10.88;;;6.32;;
18905;SDS011;9585;51.018;4.282;2022-10-31T14:35:17;11.88;;;6.47;;
18905;SDS011;9585;51.018;4.282;2022-10-31T14:37:55;11.95;;;6.22;;
18905;SDS011;9585;51.018;4.282;2022-10-31T14:40:46;11.10;;;5.65;;
18905;SDS011;9585;51.018;4.282;2022-10-31T14:43:31;9.48;;;5.22;;
18905;SDS011;9585;51.018;4.282;2022-10-31T14:46:16;10.70;;;6.20;;
18905;SDS011;9585;51.018;4.282;2022-10-31T14:48:56;9.18;;;6.03;;
18905;SDS011;9585;51.018;4.282;2022-10-31T14:51:38;11.27;;;5.75;;
18905;SDS011;9585;51.018;4.282;2022-10-31T14:54:10;8.73;;;5.53;;
18905;SDS011;9585;51.018;4.282;2022-10-31T14:56:43;10.90;;;6.38;;
18905;SDS011;9585;51.018;4.282;2022-10-31T14:59:19;11.80;;;6.22;;
18905;SDS011;9585;51.018;4.282;2022-10-31T15:01:53;11.77;;;5.97;;
18905;SDS011;9585;51.018;4.282;2022-10-31T15:04:24;10.38;;;5.40;;
18905;SDS011;9585;51.018;4.282;2022-10-31T15:06:54;11.23;;;5.70;;
18905;SDS011;9585;51.018;4.282;2022-10-31T15:09:27;10.35;;;6.03;;
18905;SDS011;9585;51.018;4.282;2022-10-31T15:11:57;9.55;;;5.15;;
18905;SDS011;9585;51.018;4.282;2022-10-31T15:14:26;10.88;;;6.18;;
18905;SDS011;9585;51.018;4.282;2022-10-31T15:16:55;12.75;;;6.30;;
18905;SDS011;9585;51.018;4.282;2022-10-31T15:19:25;8.40;;;5.25;;
18905;SDS011;9585;51.018;4.282;2022-10-31T15:21:56;12.65;;;5.80;;
18905;SDS011;9585;51.018;4.282;2022-10-31T15:24:24;7.97;;;5.70;;
18905;SDS011;9585;51.018;4.282;2022-10-31T15:26:58;9.07;;;5.50;;
18905;SDS011;9585;51.018;4.282;2022-10-31T15:29:26;9.77;;;6.03;;
18905;SDS011;9585;51.018;4.282;2022-10-31T15:31:55;11.25;;;6.20;;